createdAt,value
2018-02-13T00:01:27.914Z,15.60
2018-02-13T00:03:54.374Z,15.60
2018-02-13T00:06:20.727Z,15.70
2018-02-13T00:08:47.164Z,15.60
2018-02-13T00:11:14.704Z,15.70
2018-02-13T00:13:41.022Z,15.60
2018-02-13T00:16:07.494Z,15.60
2018-02-13T00:18:33.801Z,15.60
2018-02-13T00:21:00.124Z,15.50
2018-02-13T00:23:26.690Z,15.60
2018-02-13T00:25:53.535Z,15.60
2018-02-13T00:28:20.277Z,15.60
2018-02-13T00:30:46.594Z,15.40
2018-02-13T00:33:12.893Z,15.60
2018-02-13T00:35:40.315Z,15.70
2018-02-13T00:38:06.641Z,15.70
2018-02-13T00:40:33.345Z,15.50
2018-02-13T00:43:00.419Z,15.40
2018-02-13T00:45:26.733Z,15.60
2018-02-13T00:47:53.937Z,15.70
2018-02-13T00:50:20.256Z,15.30
2018-02-13T00:52:46.667Z,15.60
2018-02-13T00:55:13.865Z,15.20
2018-02-13T00:57:40.164Z,15.20
2018-02-13T01:00:07.046Z,15.70
2018-02-13T01:02:33.731Z,14.90
2018-02-13T01:05:00.034Z,15.30
2018-02-13T01:07:26.750Z,15.30
2018-02-13T01:09:53.554Z,15.70
2018-02-13T01:12:20.365Z,15.00
2018-02-13T01:14:46.791Z,15.20
2018-02-13T01:17:13.550Z,15.30
2018-02-13T01:19:40.304Z,15.00
2018-02-13T01:22:06.952Z,15.30
2018-02-13T01:24:33.737Z,15.00
2018-02-13T01:27:01.070Z,15.20
2018-02-13T01:29:27.372Z,15.20
2018-02-13T01:31:54.128Z,15.20
2018-02-13T01:34:20.859Z,15.10
2018-02-13T01:36:47.164Z,15.10
2018-02-13T01:39:14.618Z,15.20
2018-02-13T01:41:42.133Z,15.20
2018-02-13T01:44:08.450Z,15.10
2018-02-13T01:46:34.752Z,15.20
2018-02-13T01:49:02.214Z,15.10
2018-02-13T01:51:29.744Z,15.00
2018-02-13T01:53:56.712Z,15.20
2018-02-13T01:56:23.464Z,15.10
2018-02-13T01:58:50.281Z,15.10
2018-02-13T02:01:16.822Z,15.10
2018-02-13T02:03:43.629Z,15.20
2018-02-13T02:06:09.946Z,15.10
2018-02-13T02:08:37.460Z,15.10
2018-02-13T02:11:04.230Z,15.10
2018-02-13T02:13:30.554Z,15.10
2018-02-13T02:15:57.171Z,15.10
2018-02-13T02:18:23.864Z,14.90
2018-02-13T02:20:51.402Z,15.10
2018-02-13T02:23:17.825Z,14.80
2018-02-13T02:25:44.485Z,15.10
2018-02-13T02:28:10.780Z,14.90
2018-02-13T02:30:37.583Z,15.10
2018-02-13T02:33:04.403Z,14.80
2018-02-13T02:35:30.720Z,14.50
2018-02-13T02:37:57.496Z,15.10
2018-02-13T02:40:24.232Z,14.50
2018-02-13T02:43:04.958Z,15.00
2018-02-13T02:45:32.565Z,15.00
2018-02-13T02:47:59.308Z,14.90
2018-02-13T02:50:25.612Z,15.00
2018-02-13T02:52:52.402Z,14.70
2018-02-13T02:55:19.138Z,15.00
2018-02-13T02:57:45.994Z,14.60
2018-02-13T03:00:12.739Z,14.80
2018-02-13T03:02:39.475Z,14.70
2018-02-13T03:05:05.768Z,14.70
2018-02-13T03:07:33.284Z,14.50
2018-02-13T03:09:59.897Z,14.50
2018-02-13T03:12:26.583Z,14.50
2018-02-13T03:14:52.876Z,14.70
2018-02-13T03:17:19.525Z,14.90
2018-02-13T03:19:46.282Z,14.70
2018-02-13T03:22:12.569Z,14.70
2018-02-13T03:24:40.022Z,14.30
2018-02-13T03:27:06.687Z,14.40
2018-02-13T03:29:33.726Z,14.50
2018-02-13T03:32:01.071Z,14.50
2018-02-13T03:34:27.804Z,14.60
2018-02-13T03:36:54.343Z,14.60
2018-02-13T03:39:21.177Z,14.30
2018-02-13T03:41:47.997Z,14.60
2018-02-13T03:44:14.292Z,14.50
2018-02-13T03:46:41.161Z,14.50
2018-02-13T03:49:08.570Z,14.60
2018-02-13T03:51:35.095Z,14.40
2018-02-13T03:54:01.396Z,14.60
2018-02-13T03:56:28.909Z,14.60
2018-02-13T03:58:55.679Z,14.60
2018-02-13T04:01:23.494Z,14.30
2018-02-13T04:03:50.177Z,14.30
2018-02-13T04:06:16.604Z,14.40
2018-02-13T04:08:43.269Z,14.30
2018-02-13T04:11:09.986Z,14.40
2018-02-13T04:13:36.280Z,14.50
2018-02-13T04:16:03.797Z,14.40
2018-02-13T04:18:30.545Z,14.60
2018-02-13T04:20:56.835Z,14.50
2018-02-13T04:23:23.514Z,15.20
2018-02-13T04:25:50.168Z,15.60
2018-02-13T04:28:16.807Z,16.20
2018-02-13T04:30:43.266Z,16.80
2018-02-13T04:33:10.089Z,16.70
2018-02-13T04:35:36.835Z,17.10
2018-02-13T04:38:03.588Z,17.30
2018-02-13T04:40:29.886Z,17.80
2018-02-13T04:42:56.586Z,18.00
2018-02-13T04:45:23.099Z,18.10
2018-02-13T04:47:49.754Z,18.50
2018-02-13T04:50:16.194Z,18.60
2018-02-13T04:52:42.496Z,18.60
2018-02-13T04:55:09.133Z,18.70
2018-02-13T04:57:35.631Z,19.10
2018-02-13T05:00:02.448Z,18.90
2018-02-13T05:02:29.201Z,19.10
2018-02-13T05:04:55.785Z,18.60
2018-02-13T05:07:23.226Z,18.70
2018-02-13T05:09:50.041Z,18.40
2018-02-13T05:12:16.687Z,18.60
2018-02-13T05:14:43.443Z,18.30
2018-02-13T05:17:10.079Z,18.60
2018-02-13T05:19:36.780Z,18.00
2018-02-13T05:22:03.264Z,18.10
2018-02-13T05:24:29.995Z,18.00
2018-02-13T05:26:56.654Z,17.60
2018-02-13T05:29:23.092Z,17.20
2018-02-13T05:31:49.403Z,17.50
2018-02-13T05:34:16.075Z,17.10
2018-02-13T05:36:42.726Z,17.00
2018-02-13T05:39:09.635Z,16.70
2018-02-13T05:41:36.307Z,16.60
2018-02-13T05:44:02.745Z,16.60
2018-02-13T05:46:29.558Z,17.20
2018-02-13T05:48:56.595Z,17.40
2018-02-13T05:51:24.209Z,17.90
2018-02-13T05:53:50.939Z,17.50
2018-02-13T05:56:17.609Z,17.70
2018-02-13T05:58:44.520Z,17.70
2018-02-13T06:01:11.296Z,17.80
2018-02-13T06:03:37.965Z,18.10
2018-02-13T06:06:04.276Z,18.10
2018-02-13T06:08:30.934Z,18.10
2018-02-13T06:10:57.629Z,18.10
2018-02-13T06:13:24.941Z,17.90
2018-02-13T06:15:51.253Z,17.70
2018-02-13T06:18:17.901Z,17.90
2018-02-13T06:20:44.773Z,17.70
2018-02-13T06:23:11.147Z,17.30
2018-02-13T06:25:38.684Z,17.60
2018-02-13T06:28:05.508Z,17.20
2018-02-13T06:30:31.815Z,17.30
2018-02-13T06:32:58.620Z,17.10
2018-02-13T06:35:25.360Z,16.80
2018-02-13T06:37:51.672Z,16.60
2018-02-13T06:40:18.407Z,16.90
2018-02-13T06:42:45.087Z,16.60
2018-02-13T06:45:11.836Z,16.70
2018-02-13T06:47:38.372Z,17.30
2018-02-13T06:50:05.205Z,17.30
2018-02-13T06:52:31.509Z,17.40
2018-02-13T06:54:58.197Z,17.50
2018-02-13T06:57:24.872Z,17.20
2018-02-13T06:59:52.393Z,17.60
2018-02-13T07:02:18.819Z,17.60
2018-02-13T07:04:45.572Z,17.70
2018-02-13T07:07:11.888Z,18.00
2018-02-13T07:09:38.653Z,18.10
2018-02-13T07:12:05.390Z,18.10
2018-02-13T07:14:31.688Z,18.10
2018-02-13T07:16:58.742Z,17.70
2018-02-13T07:19:25.219Z,17.70
2018-02-13T07:21:51.883Z,18.00
2018-02-13T07:24:18.187Z,18.00
2018-02-13T07:26:51.424Z,17.30
2018-02-13T07:29:18.152Z,17.50
2018-02-13T07:31:44.456Z,17.50
2018-02-13T07:34:10.805Z,17.00
2018-02-13T07:36:37.357Z,17.20
2018-02-13T07:39:03.790Z,16.70
2018-02-13T07:41:30.107Z,16.70
2018-02-13T07:43:56.566Z,16.60
2018-02-13T07:46:22.900Z,16.60
2018-02-13T07:48:49.216Z,16.80
2018-02-13T07:51:15.827Z,16.60
2018-02-13T07:53:42.886Z,16.20
2018-02-13T07:56:09.943Z,16.20
2018-02-13T07:58:37.144Z,16.20
2018-02-13T08:01:03.466Z,16.10
2018-02-13T08:03:29.764Z,16.00
2018-02-13T08:05:56.974Z,16.10
2018-02-13T08:08:23.356Z,16.10
2018-02-13T08:10:50.481Z,16.30
2018-02-13T08:13:16.966Z,16.00
2018-02-13T08:15:43.302Z,16.00
2018-02-13T08:18:10.131Z,15.90
2018-02-13T08:20:37.189Z,15.80
2018-02-13T08:23:04.637Z,15.70
2018-02-13T08:25:31.692Z,15.60
2018-02-13T08:27:58.515Z,15.60
2018-02-13T08:30:25.167Z,15.50
2018-02-13T08:32:51.496Z,15.70
2018-02-13T08:35:18.324Z,15.80
2018-02-13T08:37:44.635Z,15.60
2018-02-13T08:40:11.025Z,15.40
2018-02-13T08:42:37.472Z,15.40
2018-02-13T08:45:03.843Z,15.50
2018-02-13T08:47:30.887Z,15.90
2018-02-13T08:49:58.087Z,15.90
2018-02-13T08:52:24.400Z,15.70
2018-02-13T08:54:51.056Z,15.50
2018-02-13T08:57:17.371Z,15.70
2018-02-13T08:59:43.682Z,15.70
2018-02-13T09:02:10.856Z,15.80
2018-02-13T09:04:37.731Z,15.80
2018-02-13T09:07:04.143Z,15.70
2018-02-13T09:09:30.501Z,15.70
2018-02-13T09:11:57.030Z,15.90
2018-02-13T09:14:23.391Z,15.70
2018-02-13T09:16:50.011Z,15.80
2018-02-13T09:19:23.439Z,15.50
2018-02-13T09:21:49.741Z,15.50
2018-02-13T09:24:16.048Z,15.60
2018-02-13T09:26:43.326Z,16.10
2018-02-13T09:29:10.375Z,16.10
2018-02-13T09:31:37.717Z,15.70
2018-02-13T09:34:05.232Z,15.60
2018-02-13T09:36:31.551Z,15.70
2018-02-13T09:38:57.855Z,15.40
2018-02-13T09:41:25.129Z,15.40
2018-02-13T09:43:51.468Z,15.60
2018-02-13T09:46:17.814Z,16.20
2018-02-13T09:48:44.279Z,16.20
2018-02-13T09:51:10.601Z,16.10
2018-02-13T09:53:36.928Z,16.00
2018-02-13T09:56:03.510Z,16.10
2018-02-13T09:58:30.041Z,16.00
2018-02-13T10:00:56.369Z,16.10
2018-02-13T10:03:22.739Z,16.00
2018-02-13T10:05:49.171Z,15.90
2018-02-13T10:08:15.486Z,16.20
2018-02-13T10:10:41.812Z,16.10
2018-02-13T10:13:08.259Z,16.00
2018-02-13T10:15:34.625Z,16.00
2018-02-13T10:18:01.046Z,16.10
2018-02-13T10:20:27.542Z,16.00
2018-02-13T10:22:54.276Z,16.10
2018-02-13T10:25:20.593Z,16.40
2018-02-13T10:27:47.880Z,16.10
2018-02-13T10:30:14.356Z,16.20
2018-02-13T10:32:40.667Z,16.10
2018-02-13T10:35:07.019Z,16.50
2018-02-13T10:37:33.457Z,16.10
2018-02-13T10:39:59.775Z,16.60
2018-02-13T10:42:26.091Z,16.50
2018-02-13T10:44:53.283Z,16.80
2018-02-13T10:47:19.609Z,16.70
2018-02-13T10:49:46.209Z,16.60
2018-02-13T10:52:12.619Z,16.50
2018-02-13T10:54:39.272Z,16.80
2018-02-13T10:57:05.996Z,16.40
2018-02-13T10:59:32.303Z,16.60
2018-02-13T11:02:04.588Z,16.70
2018-02-13T11:04:31.157Z,16.60
2018-02-13T11:06:57.489Z,16.60
2018-02-13T11:09:23.805Z,16.80
2018-02-13T11:11:50.251Z,16.60
2018-02-13T11:14:16.593Z,16.50
2018-02-13T11:16:43.071Z,16.70
2018-02-13T11:19:09.403Z,16.50
2018-02-13T11:21:35.717Z,16.70
2018-02-13T11:24:02.505Z,16.70
2018-02-13T11:26:30.021Z,17.10
2018-02-13T11:28:56.452Z,16.70
2018-02-13T11:31:22.821Z,16.70
2018-02-13T11:33:49.287Z,16.70
2018-02-13T11:36:15.716Z,16.60
2018-02-13T11:38:42.781Z,16.60
2018-02-13T11:41:09.563Z,16.80
2018-02-13T11:43:35.903Z,16.60
2018-02-13T11:46:02.212Z,17.20
2018-02-13T11:48:28.780Z,16.60
2018-02-13T11:50:55.101Z,16.80
2018-02-13T11:53:21.406Z,16.80
2018-02-13T11:55:48.718Z,17.10
2018-02-13T11:58:15.036Z,17.00
2018-02-13T12:00:41.375Z,17.20
2018-02-13T12:03:08.025Z,17.20
2018-02-13T12:05:34.368Z,17.10
2018-02-13T12:08:00.677Z,17.10
2018-02-13T12:10:27.235Z,17.30
2018-02-13T12:12:53.565Z,17.00
2018-02-13T12:15:19.931Z,17.00
2018-02-13T12:17:46.465Z,17.00
2018-02-13T12:20:12.796Z,17.30
2018-02-13T12:22:39.118Z,17.10
2018-02-13T12:25:05.686Z,17.40
2018-02-13T12:27:32.033Z,17.00
2018-02-13T12:29:58.366Z,17.10
2018-02-13T12:32:25.592Z,17.30
2018-02-13T12:34:51.951Z,17.20
2018-02-13T12:37:18.263Z,17.20
2018-02-13T12:39:44.826Z,17.40
2018-02-13T12:42:11.156Z,17.40
2018-02-13T12:44:37.504Z,17.10
2018-02-13T12:47:04.003Z,17.10
2018-02-13T12:49:30.325Z,17.40
2018-02-13T12:51:57.735Z,17.10
2018-02-13T12:54:25.125Z,17.00
2018-02-13T12:56:52.432Z,17.10
2018-02-13T12:59:18.756Z,17.10
2018-02-13T13:01:45.328Z,17.10
2018-02-13T13:04:12.176Z,17.30
2018-02-13T13:06:38.503Z,17.30
2018-02-13T13:09:05.275Z,17.50
2018-02-13T13:11:31.592Z,17.10
2018-02-13T13:13:58.061Z,17.20
2018-02-13T13:16:24.429Z,17.20
2018-02-13T13:18:50.766Z,17.10
2018-02-13T13:21:17.201Z,17.40
2018-02-13T13:23:43.980Z,17.30
2018-02-13T13:26:10.397Z,17.40
2018-02-13T13:28:36.745Z,17.30
2018-02-13T13:31:03.505Z,17.10
2018-02-13T13:33:29.832Z,17.10
2018-02-13T13:35:56.158Z,17.50
2018-02-13T13:38:22.617Z,17.20
2018-02-13T13:40:49.371Z,17.10
2018-02-13T13:43:17.643Z,17.30
2018-02-13T13:45:44.389Z,17.20
2018-02-13T13:48:10.818Z,17.20
2018-02-13T13:50:37.165Z,17.40
2018-02-13T13:53:03.681Z,17.10
2018-02-13T13:55:30.000Z,17.20
2018-02-13T13:57:56.358Z,17.20
2018-02-13T14:00:23.109Z,17.40
2018-02-13T14:02:49.540Z,17.20
2018-02-13T14:05:15.895Z,17.50
2018-02-13T14:07:49.500Z,17.60
2018-02-13T14:10:15.859Z,17.40
2018-02-13T14:12:42.267Z,17.20
2018-02-13T14:15:08.807Z,17.60
2018-02-13T14:17:35.994Z,18.10
2018-02-13T14:20:02.466Z,18.60
2018-02-13T14:22:29.202Z,19.30
2018-02-13T14:24:56.816Z,20.70
2018-02-13T14:27:23.212Z,20.80
2018-02-13T14:29:50.279Z,21.50
2018-02-13T14:32:16.719Z,21.60
2018-02-13T14:34:43.029Z,21.60
2018-02-13T14:37:10.554Z,21.70
2018-02-13T14:39:36.880Z,21.70
2018-02-13T14:42:03.227Z,21.70
2018-02-13T14:44:29.777Z,21.60
2018-02-13T14:46:56.616Z,20.90
2018-02-13T14:49:22.967Z,20.90
2018-02-13T14:51:49.309Z,20.30
2018-02-13T14:54:15.925Z,20.30
2018-02-13T14:56:42.256Z,20.70
2018-02-13T14:59:08.612Z,20.50
2018-02-13T15:01:35.162Z,20.00
2018-02-13T15:04:01.481Z,19.90
2018-02-13T15:06:27.811Z,19.40
2018-02-13T15:08:54.357Z,19.40
2018-02-13T15:11:20.710Z,19.30
2018-02-13T15:13:47.052Z,19.20
2018-02-13T15:16:13.563Z,19.30
2018-02-13T15:18:41.242Z,19.20
2018-02-13T15:21:08.010Z,19.20
2018-02-13T15:23:34.330Z,19.10
2018-02-13T15:26:01.016Z,19.00
2018-02-13T15:28:28.462Z,19.10
2018-02-13T15:30:55.222Z,19.10
2018-02-13T15:33:22.738Z,19.10
2018-02-13T15:35:49.492Z,19.10
2018-02-13T15:38:16.567Z,19.30
2018-02-13T15:40:44.285Z,19.70
2018-02-13T15:43:10.962Z,19.70
2018-02-13T15:45:37.811Z,19.90
2018-02-13T15:48:04.603Z,20.10
2018-02-13T15:50:31.484Z,20.70
2018-02-13T15:52:58.294Z,20.70
2018-02-13T15:55:25.097Z,20.80
2018-02-13T15:57:51.426Z,20.80
2018-02-13T16:00:18.985Z,20.60
2018-02-13T16:02:45.677Z,20.10
2018-02-13T16:05:13.242Z,19.50
2018-02-13T16:07:40.865Z,19.20
2018-02-13T16:10:07.189Z,19.20
2018-02-13T16:12:33.933Z,19.10
2018-02-13T16:15:00.688Z,19.30
2018-02-13T16:17:27.536Z,19.20
2018-02-13T16:19:54.273Z,18.80
2018-02-13T16:22:21.188Z,18.60
2018-02-13T16:24:47.728Z,18.60
2018-02-13T16:27:14.874Z,18.60
2018-02-13T16:29:49.043Z,18.50
2018-02-13T16:32:15.375Z,18.60
2018-02-13T16:34:41.720Z,18.60
2018-02-13T16:37:08.264Z,18.60
2018-02-13T16:39:34.596Z,18.50
2018-02-13T16:42:00.933Z,18.50
2018-02-13T16:44:27.403Z,18.30
2018-02-13T16:46:54.880Z,18.10
2018-02-13T16:49:21.967Z,18.10
2018-02-13T16:51:48.735Z,18.00
2018-02-13T16:54:15.102Z,18.10
2018-02-13T16:56:42.540Z,18.10
2018-02-13T16:59:08.906Z,18.10
2018-02-13T17:01:36.163Z,18.40
2018-02-13T17:04:03.619Z,18.50
2018-02-13T17:06:30.533Z,18.60
2018-02-13T17:08:57.180Z,18.60
2018-02-13T17:11:23.939Z,18.50
2018-02-13T17:13:50.596Z,18.60
2018-02-13T17:16:17.432Z,18.70
2018-02-13T17:18:44.088Z,18.60
2018-02-13T17:21:10.917Z,18.60
2018-02-13T17:23:37.690Z,19.10
2018-02-13T17:26:04.452Z,19.10
2018-02-13T17:28:31.964Z,18.50
2018-02-13T17:30:58.815Z,18.50
2018-02-13T17:33:25.493Z,18.60
2018-02-13T17:35:53.054Z,18.10
2018-02-13T17:38:19.871Z,18.10
2018-02-13T17:40:46.737Z,18.10
2018-02-13T17:43:13.479Z,18.10
2018-02-13T17:45:41.028Z,18.10
2018-02-13T17:48:07.840Z,18.10
2018-02-13T17:50:34.659Z,18.10
2018-02-13T17:53:02.123Z,18.50
2018-02-13T17:55:29.681Z,18.50
2018-02-13T17:57:56.496Z,18.50
2018-02-13T18:00:22.913Z,18.50
2018-02-13T18:02:49.513Z,18.50
2018-02-13T18:05:16.628Z,18.50
2018-02-13T18:07:43.494Z,17.90
2018-02-13T18:10:09.823Z,18.50
2018-02-13T18:12:36.691Z,18.50
2018-02-13T18:15:03.099Z,18.30
2018-02-13T18:17:29.474Z,18.10
2018-02-13T18:19:56.764Z,17.90
2018-02-13T18:22:23.709Z,18.10
2018-02-13T18:24:50.043Z,17.90
2018-02-13T18:27:16.381Z,18.00
2018-02-13T18:29:42.952Z,17.50
2018-02-13T18:32:09.345Z,17.20
2018-02-13T18:34:36.408Z,17.20
2018-02-13T18:37:02.905Z,17.10
2018-02-13T18:39:29.235Z,17.20
2018-02-13T18:41:55.577Z,17.10
2018-02-13T18:44:22.010Z,17.20
2018-02-13T18:46:48.352Z,16.90
2018-02-13T18:49:15.468Z,16.60
2018-02-13T18:51:42.038Z,16.80
2018-02-13T18:54:08.372Z,16.90
2018-02-13T18:56:35.022Z,16.70
2018-02-13T18:59:01.483Z,16.60
2018-02-13T19:01:27.860Z,16.50
2018-02-13T19:03:54.440Z,16.20
2018-02-13T19:06:20.910Z,16.30
2018-02-13T19:08:48.393Z,16.20
2018-02-13T19:11:15.182Z,16.40
2018-02-13T19:13:43.223Z,16.10
2018-02-13T19:26:01.077Z,15.60
2018-02-13T19:28:28.296Z,15.60
2018-02-13T19:30:54.937Z,16.00
2018-02-13T19:33:21.757Z,16.20
2018-02-13T19:35:48.125Z,16.10
2018-02-13T19:38:14.711Z,16.10
2018-02-13T19:40:41.939Z,16.70
2018-02-13T19:43:08.544Z,16.60
2018-02-13T19:45:35.890Z,16.50
2018-02-13T19:48:02.635Z,16.50
2018-02-13T19:50:29.124Z,16.50
2018-02-13T19:52:55.513Z,16.50
2018-02-13T19:55:22.602Z,16.70
2018-02-13T19:57:49.217Z,16.70
2018-02-13T20:00:16.491Z,16.30
2018-02-13T20:02:43.877Z,16.10
2018-02-13T20:05:10.574Z,16.10
2018-02-13T20:07:37.547Z,16.30
2018-02-13T20:10:06.467Z,16.00
2018-02-13T20:12:32.956Z,16.30
2018-02-13T20:14:59.568Z,16.10
2018-02-13T20:17:26.540Z,16.10
2018-02-13T20:19:52.998Z,16.80
2018-02-13T20:22:20.064Z,16.60
2018-02-13T20:24:47.555Z,16.50
2018-02-13T20:27:14.114Z,16.50
2018-02-13T20:29:40.695Z,16.60
2018-02-13T20:32:07.241Z,16.80
2018-02-13T20:34:34.589Z,16.40
2018-02-13T20:37:00.915Z,16.50
2018-02-13T20:39:27.452Z,16.40
2018-02-13T20:41:53.813Z,16.50
2018-02-13T20:44:20.915Z,16.50
2018-02-13T20:46:47.484Z,16.60
2018-02-13T20:49:13.835Z,16.50
2018-02-13T20:51:40.164Z,16.50
2018-02-13T20:54:06.617Z,16.50
2018-02-13T20:56:32.966Z,16.60
2018-02-13T20:59:00.042Z,16.60
2018-02-13T21:01:26.517Z,16.50
2018-02-13T21:03:52.880Z,16.80
2018-02-13T21:06:19.240Z,16.70
2018-02-13T21:08:46.459Z,16.10
2018-02-13T21:11:13.181Z,16.20
2018-02-13T21:13:39.516Z,16.10
2018-02-13T21:16:06.248Z,16.30
2018-02-13T21:18:32.751Z,16.10
2018-02-13T21:20:59.831Z,16.10
2018-02-13T21:23:26.428Z,16.20
2018-02-13T21:25:52.795Z,16.00
2018-02-13T21:28:19.890Z,15.80
2018-02-13T21:30:46.357Z,15.50
2018-02-13T21:33:12.708Z,16.00
2018-02-13T21:35:39.036Z,15.90
2018-02-13T21:38:05.483Z,15.80
2018-02-13T21:40:38.844Z,15.60
2018-02-13T21:43:05.315Z,15.70
2018-02-13T21:45:31.649Z,15.70
2018-02-13T21:47:57.967Z,16.10
2018-02-13T21:50:24.497Z,16.60
2018-02-13T21:52:51.087Z,17.00
2018-02-13T21:55:18.154Z,18.00
2018-02-13T21:57:44.721Z,17.80
2018-02-13T22:00:11.175Z,18.00
2018-02-13T22:02:44.453Z,18.00
2018-02-13T22:05:13.728Z,18.00
2018-02-13T22:07:40.419Z,18.10
2018-02-13T22:10:06.756Z,18.10
2018-02-13T22:12:33.089Z,18.00
2018-02-13T22:14:59.731Z,17.70
2018-02-13T22:17:26.057Z,18.00
2018-02-13T22:19:52.378Z,18.10
2018-02-13T22:22:19.172Z,18.00
2018-02-13T22:24:47.373Z,17.20
2018-02-13T22:27:14.436Z,17.30
2018-02-13T22:29:40.782Z,17.30
2018-02-13T22:32:07.944Z,17.50
2018-02-13T22:34:34.289Z,17.50
2018-02-13T22:37:00.637Z,17.40
2018-02-13T22:39:27.180Z,16.70
2018-02-13T22:41:53.492Z,16.80
2018-02-13T22:44:19.903Z,16.60
2018-02-13T22:46:47.117Z,16.80
2018-02-13T22:49:13.412Z,16.50
2018-02-13T22:51:39.719Z,16.30
2018-02-13T22:54:06.356Z,16.20
2018-02-13T22:56:33.185Z,16.40
2018-02-13T22:58:59.546Z,16.00
2018-02-13T23:01:26.053Z,16.00
2018-02-13T23:03:52.769Z,16.10
2018-02-13T23:06:19.084Z,16.10
2018-02-13T23:08:46.144Z,15.60
2018-02-13T23:11:13.313Z,15.60
2018-02-13T23:13:40.015Z,15.70
2018-02-13T23:16:06.329Z,15.60
2018-02-13T23:18:33.024Z,15.70
2018-02-13T23:20:59.330Z,15.70
2018-02-13T23:23:26.069Z,15.40
2018-02-13T23:25:52.905Z,15.70
2018-02-13T23:28:19.228Z,15.60
2018-02-13T23:30:45.547Z,15.50
2018-02-13T23:33:12.128Z,15.10
2018-02-13T23:35:38.732Z,15.00
2018-02-13T23:38:05.044Z,15.20
2018-02-13T23:40:32.091Z,15.30
2018-02-13T23:42:59.301Z,15.10
2018-02-13T23:45:26.048Z,15.10
2018-02-13T23:47:52.356Z,15.10
2018-02-13T23:50:19.062Z,15.20
2018-02-13T23:52:45.706Z,15.10
2018-02-13T23:55:12.441Z,15.10
2018-02-13T23:57:40.223Z,15.10
